Superstar Express — 3FFX9 — position and weather

sailwx.info

Track history (hours):
 
Tides and Currents Weather Stations Pressure Air Temp Water Temp Dewpoint Dewpoint Depression Visibility Wind Speed Wind Dir Waves Ship Positions

Superstar Express

Operator: P & O Irish Sea

Last reported at 2020-Jun-02 08:29 UTC. Time now 2020-Jul-09 05:04 UTC.
Position N 29°44' W 089°59'.
Warning: this ship's position is 36 days out of date.

Length 183 m; draft 11.7 m.

Type: Cargo ship. MMSI: 351360000.

Date/timePositionNaut miles runAvg speedWind from/ knotsBaromVisibWave heightAir tempDewpointWater temp
2020-Jun-02 08:29N 29°44' W 089°59'21 6.1
2020-Jun-02 05:00N 29°56' W 090°19'15 1.2
2020-Jun-01 16:00N 30°03' W 090°35'0 0.0
2020-Jun-01 15:30N 30°03' W 090°35'0 0.0
2020-Jun-01 13:00N 30°03' W 090°35'0 0.0
2020-Jun-01 11:54N 30°03' W 090°35'0 0.0
2020-Jun-01 08:12N 30°03' W 090°35'0 0.0
2020-Jun-01 05:00N 30°03' W 090°35'0 0.0
2020-Jun-01 04:30N 30°03' W 090°35'0 0.0
2020-Jun-01 03:00N 30°03' W 090°35'0 0.0
2020-Jun-01 02:30N 30°03' W 090°35'0 0.0
2020-Jun-01 01:57N 30°03' W 090°35'0 0.0
2020-Jun-01 00:15N 30°03' W 090°35'0 0.0
2020-May-31 07:30N 30°03' W 090°35'0 0.0
2020-May-31 04:00N 30°03' W 090°35'0 0.0
2020-May-31 02:54N 30°03' W 090°35'8 0.2
2020-May-29 00:30N 29°60' W 090°26'0 0.0
2020-May-28 21:30N 29°60' W 090°26'0 0.0
2020-May-28 20:24N 29°60' W 090°26'0 0.0
2020-May-28 12:00N 29°60' W 090°26'0 0.0
2020-May-28 10:54N 29°60' W 090°26'0 0.0
2020-May-28 10:13N 29°60' W 090°26'  
Track history (hours):
 
Tides and Currents Weather Stations Pressure Air Temp Water Temp Dewpoint Dewpoint Depression Visibility Wind Speed Wind Dir Waves Ship Positions

Superstar Express

Operator: P & O Irish Sea

Last reported at 2020-Jun-02 08:29 UTC. Time now 2020-Jul-09 05:04 UTC.
Position N 29°44' W 089°59'.
Warning: this ship's position is 36 days out of date.

Length 183 m; draft 11.7 m.

Type: Cargo ship. MMSI: 351360000.

Date/timePositionNaut miles runAvg speedWind from/ knotsBaromVisibWave heightAir tempDewpointWater temp
2020-Jun-02 08:29N 29°44' W 089°59'21 6.1
2020-Jun-02 05:00N 29°56' W 090°19'15 1.2
2020-Jun-01 16:00N 30°03' W 090°35'0 0.0
2020-Jun-01 15:30N 30°03' W 090°35'0 0.0
2020-Jun-01 13:00N 30°03' W 090°35'0 0.0
2020-Jun-01 11:54N 30°03' W 090°35'0 0.0
2020-Jun-01 08:12N 30°03' W 090°35'0 0.0
2020-Jun-01 05:00N 30°03' W 090°35'0 0.0
2020-Jun-01 04:30N 30°03' W 090°35'0 0.0
2020-Jun-01 03:00N 30°03' W 090°35'0 0.0
2020-Jun-01 02:30N 30°03' W 090°35'0 0.0
2020-Jun-01 01:57N 30°03' W 090°35'0 0.0
2020-Jun-01 00:15N 30°03' W 090°35'0 0.0
2020-May-31 07:30N 30°03' W 090°35'0 0.0
2020-May-31 04:00N 30°03' W 090°35'0 0.0
2020-May-31 02:54N 30°03' W 090°35'8 0.2
2020-May-29 00:30N 29°60' W 090°26'0 0.0
2020-May-28 21:30N 29°60' W 090°26'0 0.0
2020-May-28 20:24N 29°60' W 090°26'0 0.0
2020-May-28 12:00N 29°60' W 090°26'0 0.0
2020-May-28 10:54N 29°60' W 090°26'0 0.0
2020-May-28 10:13N 29°60' W 090°26'  

Dump ship's entire track history